sensor_id;sensor_type;location;lat;lon;timestamp;temperature;humidity
17341;DHT22;8788;49.930;8.660;2022-09-28T04:04:12;10.90;99.90
17341;DHT22;8788;49.930;8.660;2022-09-28T04:06:41;10.90;99.90
17341;DHT22;8788;49.930;8.660;2022-09-28T04:09:09;10.90;99.90
17341;DHT22;8788;49.930;8.660;2022-09-28T04:11:36;10.90;99.90
17341;DHT22;8788;49.930;8.660;2022-09-28T04:14:03;11.00;99.90
17341;DHT22;8788;49.930;8.660;2022-09-28T04:16:30;11.00;99.90
17341;DHT22;8788;49.930;8.660;2022-09-28T04:19:07;11.00;99.90
17341;DHT22;8788;49.930;8.660;2022-09-28T04:21:56;11.00;99.90
17341;DHT22;8788;49.930;8.660;2022-09-28T04:24:23;11.10;99.90
17341;DHT22;8788;49.930;8.660;2022-09-28T04:26:51;11.10;99.90
17341;DHT22;8788;49.930;8.660;2022-09-28T04:29:38;11.10;99.90
17341;DHT22;8788;49.930;8.660;2022-09-28T04:32:09;11.10;99.90
17341;DHT22;8788;49.930;8.660;2022-09-28T04:34:39;11.10;99.90
17341;DHT22;8788;49.930;8.660;2022-09-28T04:37:07;11.10;99.90
17341;DHT22;8788;49.930;8.660;2022-09-28T04:39:36;11.00;99.90
17341;DHT22;8788;49.930;8.660;2022-09-28T04:42:03;11.00;99.90
17341;DHT22;8788;49.930;8.660;2022-09-28T04:44:30;11.00;99.90
17341;DHT22;8788;49.930;8.660;2022-09-28T04:47:02;10.90;99.90
17341;DHT22;8788;49.930;8.660;2022-09-28T04:49:29;10.90;99.90
17341;DHT22;8788;49.930;8.660;2022-09-28T04:52:18;10.80;99.90
17341;DHT22;8788;49.930;8.660;2022-09-28T04:54:48;10.70;99.90
17341;DHT22;8788;49.930;8.660;2022-09-28T04:57:15;10.80;99.90
17341;DHT22;8788;49.930;8.660;2022-09-28T04:59:42;10.80;99.90
17341;DHT22;8788;49.930;8.660;2022-09-28T05:02:09;10.70;99.90
17341;DHT22;8788;49.930;8.660;2022-09-28T05:04:58;10.80;99.90
17341;DHT22;8788;49.930;8.660;2022-09-28T05:07:43;10.80;99.90
17341;DHT22;8788;49.930;8.660;2022-09-28T05:10:10;10.80;99.90
17341;DHT22;8788;49.930;8.660;2022-09-28T05:12:39;10.70;99.90
17341;DHT22;8788;49.930;8.660;2022-09-28T05:15:06;10.70;99.90
17341;DHT22;8788;49.930;8.660;2022-09-28T05:17:33;10.70;99.90
17341;DHT22;8788;49.930;8.660;2022-09-28T05:20:19;10.80;99.90
17341;DHT22;8788;49.930;8.660;2022-09-28T05:22:48;10.70;99.90
17341;DHT22;8788;49.930;8.660;2022-09-28T05:25:16;10.70;99.90
17341;DHT22;8788;49.930;8.660;2022-09-28T05:27:53;10.70;99.90
17341;DHT22;8788;49.930;8.660;2022-09-28T05:30:37;10.60;99.90
17341;DHT22;8788;49.930;8.660;2022-09-28T05:33:21;10.60;99.90
17341;DHT22;8788;49.930;8.660;2022-09-28T05:35:55;10.70;99.90
17341;DHT22;8788;49.930;8.660;2022-09-28T05:38:24;10.70;99.90
17341;DHT22;8788;49.930;8.660;2022-09-28T05:40:51;10.70;99.90
17341;DHT22;8788;49.930;8.660;2022-09-28T05:43:18;10.80;99.90
17341;DHT22;8788;49.930;8.660;2022-09-28T05:45:45;10.80;99.90
17341;DHT22;8788;49.930;8.660;2022-09-28T05:48:13;10.90;99.90
17341;DHT22;8788;49.930;8.660;2022-09-28T05:50:40;10.90;99.90
17341;DHT22;8788;49.930;8.660;2022-09-28T05:53:08;10.90;99.90
17341;DHT22;8788;49.930;8.660;2022-09-28T05:55:37;10.90;99.90
17341;DHT22;8788;49.930;8.660;2022-09-28T05:58:05;10.90;99.90
17341;DHT22;8788;49.930;8.660;2022-09-28T06:00:34;11.00;99.90
17341;DHT22;8788;49.930;8.660;2022-09-28T06:03:03;11.00;99.90
17341;DHT22;8788;49.930;8.660;2022-09-28T06:05:32;11.00;99.90
17341;DHT22;8788;49.930;8.660;2022-09-28T06:08:02;11.00;99.90
17341;DHT22;8788;49.930;8.660;2022-09-28T06:10:30;11.00;99.90
17341;DHT22;8788;49.930;8.660;2022-09-28T06:13:01;10.90;99.90
17341;DHT22;8788;49.930;8.660;2022-09-28T06:15:30;11.00;99.90
17341;DHT22;8788;49.930;8.660;2022-09-28T06:18:00;10.90;99.90
17341;DHT22;8788;49.930;8.660;2022-09-28T06:20:42;11.00;99.90
17341;DHT22;8788;49.930;8.660;2022-09-28T06:23:14;11.00;99.90
17341;DHT22;8788;49.930;8.660;2022-09-28T06:25:42;11.00;99.90
17341;DHT22;8788;49.930;8.660;2022-09-28T06:28:12;11.10;99.90
17341;DHT22;8788;49.930;8.660;2022-09-28T06:30:40;11.10;99.90
17341;DHT22;8788;49.930;8.660;2022-09-28T06:33:11;11.20;99.90
17341;DHT22;8788;49.930;8.660;2022-09-28T06:35:39;11.20;99.90
17341;DHT22;8788;49.930;8.660;2022-09-28T06:38:07;11.20;99.90
17341;DHT22;8788;49.930;8.660;2022-09-28T06:40:34;11.20;99.90
17341;DHT22;8788;49.930;8.660;2022-09-28T06:43:03;11.20;99.90
17341;DHT22;8788;49.930;8.660;2022-09-28T06:45:54;11.20;99.90
17341;DHT22;8788;49.930;8.660;2022-09-28T06:48:37;11.30;99.90
17341;DHT22;8788;49.930;8.660;2022-09-28T06:51:07;11.30;99.90
17341;DHT22;8788;49.930;8.660;2022-09-28T06:53:45;11.30;99.90
17341;DHT22;8788;49.930;8.660;2022-09-28T06:56:41;11.30;99.90
17341;DHT22;8788;49.930;8.660;2022-09-28T06:59:09;11.40;99.90
17341;DHT22;8788;49.930;8.660;2022-09-28T07:01:38;11.50;99.90
17341;DHT22;8788;49.930;8.660;2022-09-28T07:04:21;11.50;99.90
17341;DHT22;8788;49.930;8.660;2022-09-28T07:07:07;11.50;99.90
17341;DHT22;8788;49.930;8.660;2022-09-28T07:09:54;11.60;99.90
17341;DHT22;8788;49.930;8.660;2022-09-28T07:12:42;11.50;99.90
17341;DHT22;8788;49.930;8.660;2022-09-28T07:15:31;11.50;99.90
17341;DHT22;8788;49.930;8.660;2022-09-28T07:18:01;11.50;99.90
17341;DHT22;8788;49.930;8.660;2022-09-28T07:20:31;11.50;99.90
17341;DHT22;8788;49.930;8.660;2022-09-28T07:23:01;11.60;99.90
17341;DHT22;8788;49.930;8.660;2022-09-28T07:25:33;11.60;99.90
17341;DHT22;8788;49.930;8.660;2022-09-28T07:28:26;11.60;99.90
17341;DHT22;8788;49.930;8.660;2022-09-28T07:31:15;11.50;99.90
17341;DHT22;8788;49.930;8.660;2022-09-28T07:34:02;11.50;99.90
17341;DHT22;8788;49.930;8.660;2022-09-28T07:36:37;11.60;99.90
17341;DHT22;8788;49.930;8.660;2022-09-28T07:39:04;11.60;99.90
17341;DHT22;8788;49.930;8.660;2022-09-28T07:41:32;11.60;99.90
17341;DHT22;8788;49.930;8.660;2022-09-28T07:43:59;11.60;99.90
17341;DHT22;8788;49.930;8.660;2022-09-28T07:46:31;11.60;99.90
17341;DHT22;8788;49.930;8.660;2022-09-28T07:49:05;11.60;99.90
17341;DHT22;8788;49.930;8.660;2022-09-28T07:51:44;11.60;99.90
17341;DHT22;8788;49.930;8.660;2022-09-28T07:54:26;11.70;99.90
17341;DHT22;8788;49.930;8.660;2022-09-28T07:56:53;11.80;99.90
17341;DHT22;8788;49.930;8.660;2022-09-28T07:59:38;11.80;99.90
17341;DHT22;8788;49.930;8.660;2022-09-28T08:02:24;11.80;99.90
17341;DHT22;8788;49.930;8.660;2022-09-28T08:04:53;11.90;99.90
17341;DHT22;8788;49.930;8.660;2022-09-28T08:07:21;11.90;99.90
17341;DHT22;8788;49.930;8.660;2022-09-28T08:09:58;11.80;99.90
17341;DHT22;8788;49.930;8.660;2022-09-28T08:12:25;11.80;99.90
17341;DHT22;8788;49.930;8.660;2022-09-28T08:15:15;11.90;99.90
17341;DHT22;8788;49.930;8.660;2022-09-28T08:17:55;12.00;99.90
17341;DHT22;8788;49.930;8.660;2022-09-28T08:20:25;12.10;99.90
17341;DHT22;8788;49.930;8.660;2022-09-28T08:23:09;12.10;99.90
17341;DHT22;8788;49.930;8.660;2022-09-28T08:25:39;12.10;99.90
17341;DHT22;8788;49.930;8.660;2022-09-28T08:28:06;12.10;99.90
17341;DHT22;8788;49.930;8.660;2022-09-28T08:30:40;12.00;99.90
17341;DHT22;8788;49.930;8.660;2022-09-28T08:33:25;12.00;99.90
17341;DHT22;8788;49.930;8.660;2022-09-28T08:36:12;12.10;99.90
17341;DHT22;8788;49.930;8.660;2022-09-28T08:39:01;12.10;99.90
17341;DHT22;8788;49.930;8.660;2022-09-28T08:41:50;12.10;99.90
17341;DHT22;8788;49.930;8.660;2022-09-28T08:44:56;12.10;99.90
17341;DHT22;8788;49.930;8.660;2022-09-28T08:47:49;12.20;99.90
17341;DHT22;8788;49.930;8.660;2022-09-28T08:51:11;12.10;99.90
17341;DHT22;8788;49.930;8.660;2022-09-28T08:54:02;12.20;99.90
17341;DHT22;8788;49.930;8.660;2022-09-28T08:56:38;12.20;99.90
17341;DHT22;8788;49.930;8.660;2022-09-28T08:59:11;12.30;99.90
17341;DHT22;8788;49.930;8.660;2022-09-28T09:01:45;12.50;99.90
17341;DHT22;8788;49.930;8.660;2022-09-28T09:04:15;12.70;99.90
17341;DHT22;8788;49.930;8.660;2022-09-28T09:07:42;12.80;99.90
17341;DHT22;8788;49.930;8.660;2022-09-28T09:13:31;13.10;99.90
17341;DHT22;8788;49.930;8.660;2022-09-28T09:16:10;13.10;99.90
17341;DHT22;8788;49.930;8.660;2022-09-28T09:19:13;13.10;99.90
17341;DHT22;8788;49.930;8.660;2022-09-28T09:21:58;13.20;99.90
17341;DHT22;8788;49.930;8.660;2022-09-28T09:24:37;13.40;99.90
17341;DHT22;8788;49.930;8.660;2022-09-28T09:27:17;13.50;99.90
17341;DHT22;8788;49.930;8.660;2022-09-28T09:29:58;13.60;99.90
17341;DHT22;8788;49.930;8.660;2022-09-28T09:32:42;13.70;99.90
17341;DHT22;8788;49.930;8.660;2022-09-28T09:39:01;13.70;99.90
17341;DHT22;8788;49.930;8.660;2022-09-28T09:42:03;13.80;99.90
17341;DHT22;8788;49.930;8.660;2022-09-28T09:45:10;14.10;99.90
17341;DHT22;8788;49.930;8.660;2022-09-28T09:48:16;14.20;99.90
17341;DHT22;8788;49.930;8.660;2022-09-28T09:50:47;14.30;99.90
17341;DHT22;8788;49.930;8.660;2022-09-28T09:53:21;14.40;99.90
17341;DHT22;8788;49.930;8.660;2022-09-28T09:55:51;14.20;99.90
17341;DHT22;8788;49.930;8.660;2022-09-28T09:58:44;14.30;99.90
17341;DHT22;8788;49.930;8.660;2022-09-28T10:01:32;14.50;99.90
17341;DHT22;8788;49.930;8.660;2022-09-28T10:04:23;14.70;99.90
17341;DHT22;8788;49.930;8.660;2022-09-28T10:06:57;14.80;99.90
17341;DHT22;8788;49.930;8.660;2022-09-28T10:09:30;14.90;99.90
17341;DHT22;8788;49.930;8.660;2022-09-28T10:12:18;14.90;99.90
17341;DHT22;8788;49.930;8.660;2022-09-28T10:14:46;14.90;99.90
17341;DHT22;8788;49.930;8.660;2022-09-28T10:17:17;14.70;99.90
17341;DHT22;8788;49.930;8.660;2022-09-28T10:20:32;14.50;99.90
17341;DHT22;8788;49.930;8.660;2022-09-28T10:23:31;14.20;99.90
17341;DHT22;8788;49.930;8.660;2022-09-28T10:26:02;14.10;99.90
17341;DHT22;8788;49.930;8.660;2022-09-28T10:28:34;14.00;99.90
17341;DHT22;8788;49.930;8.660;2022-09-28T10:31:38;13.80;99.90
17341;DHT22;8788;49.930;8.660;2022-09-28T10:34:28;13.60;99.90
17341;DHT22;8788;49.930;8.660;2022-09-28T10:37:01;13.50;99.90
17341;DHT22;8788;49.930;8.660;2022-09-28T10:39:45;13.50;99.90
17341;DHT22;8788;49.930;8.660;2022-09-28T10:42:19;13.50;99.90
17341;DHT22;8788;49.930;8.660;2022-09-28T10:44:54;13.50;99.90
17341;DHT22;8788;49.930;8.660;2022-09-28T10:47:35;13.50;99.90
17341;DHT22;8788;49.930;8.660;2022-09-28T10:50:19;13.40;99.90
17341;DHT22;8788;49.930;8.660;2022-09-28T10:52:47;13.40;99.90
17341;DHT22;8788;49.930;8.660;2022-09-28T10:55:59;13.50;99.90
17341;DHT22;8788;49.930;8.660;2022-09-28T10:58:32;13.50;99.90
17341;DHT22;8788;49.930;8.660;2022-09-28T11:01:05;13.40;99.90
17341;DHT22;8788;49.930;8.660;2022-09-28T11:03:49;13.40;99.90
17341;DHT22;8788;49.930;8.660;2022-09-28T11:06:25;13.40;99.90
17341;DHT22;8788;49.930;8.660;2022-09-28T11:08:54;13.60;99.90
17341;DHT22;8788;49.930;8.660;2022-09-28T11:11:22;13.70;99.90
17341;DHT22;8788;49.930;8.660;2022-09-28T11:13:59;13.80;99.90
17341;DHT22;8788;49.930;8.660;2022-09-28T11:16:33;13.90;99.90
17341;DHT22;8788;49.930;8.660;2022-09-28T11:19:04;14.00;99.90
17341;DHT22;8788;49.930;8.660;2022-09-28T11:21:42;14.10;99.90
17341;DHT22;8788;49.930;8.660;2022-09-28T11:24:19;14.20;99.90
17341;DHT22;8788;49.930;8.660;2022-09-28T11:26:49;14.20;99.90
17341;DHT22;8788;49.930;8.660;2022-09-28T11:29:25;14.20;99.90
17341;DHT22;8788;49.930;8.660;2022-09-28T11:32:40;14.10;99.90
17341;DHT22;8788;49.930;8.660;2022-09-28T11:35:36;14.20;99.90
17341;DHT22;8788;49.930;8.660;2022-09-28T11:38:22;14.20;99.90
17341;DHT22;8788;49.930;8.660;2022-09-28T11:41:30;14.30;99.90
17341;DHT22;8788;49.930;8.660;2022-09-28T11:47:34;14.80;99.90
17341;DHT22;8788;49.930;8.660;2022-09-28T11:50:14;14.90;99.90
17341;DHT22;8788;49.930;8.660;2022-09-28T11:52:49;14.90;99.90
17341;DHT22;8788;49.930;8.660;2022-09-28T11:55:26;14.80;99.90
17341;DHT22;8788;49.930;8.660;2022-09-28T11:58:02;14.80;99.90
17341;DHT22;8788;49.930;8.660;2022-09-28T12:00:30;14.90;99.90
17341;DHT22;8788;49.930;8.660;2022-09-28T12:03:05;15.10;99.90
17341;DHT22;8788;49.930;8.660;2022-09-28T12:05:37;15.30;99.90
17341;DHT22;8788;49.930;8.660;2022-09-28T12:08:11;15.40;99.90
17341;DHT22;8788;49.930;8.660;2022-09-28T12:11:09;15.40;99.90
17341;DHT22;8788;49.930;8.660;2022-09-28T12:13:59;15.40;99.90
17341;DHT22;8788;49.930;8.660;2022-09-28T12:16:30;15.40;99.90
17341;DHT22;8788;49.930;8.660;2022-09-28T12:19:01;15.30;99.90
17341;DHT22;8788;49.930;8.660;2022-09-28T12:21:35;15.30;99.90
17341;DHT22;8788;49.930;8.660;2022-09-28T12:24:08;15.30;99.90
17341;DHT22;8788;49.930;8.660;2022-09-28T12:26:44;15.40;99.90
17341;DHT22;8788;49.930;8.660;2022-09-28T12:29:14;15.60;99.90
17341;DHT22;8788;49.930;8.660;2022-09-28T12:31:55;15.80;99.90
17341;DHT22;8788;49.930;8.660;2022-09-28T12:34:24;15.80;99.90
17341;DHT22;8788;49.930;8.660;2022-09-28T12:37:13;15.70;99.90
17341;DHT22;8788;49.930;8.660;2022-09-28T12:39:51;15.50;99.90
17341;DHT22;8788;49.930;8.660;2022-09-28T12:42:38;15.50;99.90
17341;DHT22;8788;49.930;8.660;2022-09-28T12:45:23;15.50;99.90
17341;DHT22;8788;49.930;8.660;2022-09-28T12:48:12;15.40;99.90
17341;DHT22;8788;49.930;8.660;2022-09-28T12:50:49;15.40;99.90
17341;DHT22;8788;49.930;8.660;2022-09-28T12:53:33;15.20;99.90
17341;DHT22;8788;49.930;8.660;2022-09-28T12:56:02;15.20;99.90
17341;DHT22;8788;49.930;8.660;2022-09-28T12:58:42;15.10;99.90
17341;DHT22;8788;49.930;8.660;2022-09-28T13:01:30;15.00;99.90
17341;DHT22;8788;49.930;8.660;2022-09-28T13:04:17;15.00;99.90
17341;DHT22;8788;49.930;8.660;2022-09-28T13:06:55;14.90;99.90
17341;DHT22;8788;49.930;8.660;2022-09-28T13:09:25;14.90;99.90
17341;DHT22;8788;49.930;8.660;2022-09-28T13:12:13;14.80;99.90
17341;DHT22;8788;49.930;8.660;2022-09-28T13:15:26;14.80;99.90
17341;DHT22;8788;49.930;8.660;2022-09-28T13:18:02;14.80;99.90
17341;DHT22;8788;49.930;8.660;2022-09-28T13:20:44;14.80;99.90
17341;DHT22;8788;49.930;8.660;2022-09-28T13:23:16;14.80;99.90
17341;DHT22;8788;49.930;8.660;2022-09-28T13:25:48;14.80;99.90
17341;DHT22;8788;49.930;8.660;2022-09-28T13:28:18;14.70;99.90
17341;DHT22;8788;49.930;8.660;2022-09-28T13:30:48;14.80;99.90
17341;DHT22;8788;49.930;8.660;2022-09-28T13:33:28;14.80;99.90
17341;DHT22;8788;49.930;8.660;2022-09-28T13:35:56;14.80;99.90
17341;DHT22;8788;49.930;8.660;2022-09-28T13:38:43;14.90;99.90
17341;DHT22;8788;49.930;8.660;2022-09-28T13:41:18;14.90;99.90
17341;DHT22;8788;49.930;8.660;2022-09-28T13:44:12;15.00;99.90
17341;DHT22;8788;49.930;8.660;2022-09-28T13:46:47;15.10;99.90
17341;DHT22;8788;49.930;8.660;2022-09-28T13:49:21;15.10;99.90
17341;DHT22;8788;49.930;8.660;2022-09-28T13:51:57;15.10;99.90
17341;DHT22;8788;49.930;8.660;2022-09-28T13:54:52;15.20;99.90
17341;DHT22;8788;49.930;8.660;2022-09-28T13:57:25;15.20;99.90
17341;DHT22;8788;49.930;8.660;2022-09-28T14:00:01;15.20;99.90
17341;DHT22;8788;49.930;8.660;2022-09-28T14:02:43;15.30;99.90
17341;DHT22;8788;49.930;8.660;2022-09-28T14:05:45;15.40;99.90
17341;DHT22;8788;49.930;8.660;2022-09-28T14:08:33;15.40;99.90
17341;DHT22;8788;49.930;8.660;2022-09-28T14:14:18;15.30;99.90
17341;DHT22;8788;49.930;8.660;2022-09-28T14:16:51;15.30;99.90
17341;DHT22;8788;49.930;8.660;2022-09-28T14:19:27;15.30;99.90
17341;DHT22;8788;49.930;8.660;2022-09-28T14:22:04;15.20;99.90
17341;DHT22;8788;49.930;8.660;2022-09-28T14:24:39;15.20;99.90
17341;DHT22;8788;49.930;8.660;2022-09-28T14:27:26;15.10;99.90
17341;DHT22;8788;49.930;8.660;2022-09-28T14:30:12;15.20;99.90
17341;DHT22;8788;49.930;8.660;2022-09-28T14:32:49;15.10;99.90
17341;DHT22;8788;49.930;8.660;2022-09-28T14:35:28;15.10;99.90
17341;DHT22;8788;49.930;8.660;2022-09-28T14:38:04;15.10;99.90
17341;DHT22;8788;49.930;8.660;2022-09-28T14:41:03;15.10;99.90
17341;DHT22;8788;49.930;8.660;2022-09-28T14:44:02;15.10;99.90
17341;DHT22;8788;49.930;8.660;2022-09-28T14:46:35;15.10;99.90
17341;DHT22;8788;49.930;8.660;2022-09-28T14:49:04;15.10;99.90
17341;DHT22;8788;49.930;8.660;2022-09-28T14:52:09;15.10;99.90
17341;DHT22;8788;49.930;8.660;2022-09-28T14:54:47;15.10;99.90
17341;DHT22;8788;49.930;8.660;2022-09-28T14:57:17;15.20;99.90
17341;DHT22;8788;49.930;8.660;2022-09-28T14:59:45;15.20;99.90
17341;DHT22;8788;49.930;8.660;2022-09-28T15:02:21;15.20;99.90
17341;DHT22;8788;49.930;8.660;2022-09-28T15:04:54;15.20;99.90
17341;DHT22;8788;49.930;8.660;2022-09-28T15:07:27;15.20;99.90
17341;DHT22;8788;49.930;8.660;2022-09-28T15:09:59;15.20;99.90
17341;DHT22;8788;49.930;8.660;2022-09-28T15:12:27;15.20;99.90
17341;DHT22;8788;49.930;8.660;2022-09-28T15:14:57;15.20;99.90
17341;DHT22;8788;49.930;8.660;2022-09-28T15:17:29;15.20;99.90
17341;DHT22;8788;49.930;8.660;2022-09-28T15:20:18;15.10;99.90
17341;DHT22;8788;49.930;8.660;2022-09-28T15:22:49;15.10;99.90
17341;DHT22;8788;49.930;8.660;2022-09-28T15:25:19;15.10;99.90
17341;DHT22;8788;49.930;8.660;2022-09-28T15:27:50;15.20;99.90
17341;DHT22;8788;49.930;8.660;2022-09-28T15:30:24;15.30;99.90
17341;DHT22;8788;49.930;8.660;2022-09-28T15:32:52;15.30;99.90
17341;DHT22;8788;49.930;8.660;2022-09-28T15:35:23;15.20;99.90
17341;DHT22;8788;49.930;8.660;2022-09-28T15:37:52;15.10;99.90
17341;DHT22;8788;49.930;8.660;2022-09-28T15:40:27;15.00;99.90
17341;DHT22;8788;49.930;8.660;2022-09-28T15:42:55;15.00;99.90
17341;DHT22;8788;49.930;8.660;2022-09-28T15:45:26;15.00;99.90
17341;DHT22;8788;49.930;8.660;2022-09-28T15:48:17;15.00;99.90
17341;DHT22;8788;49.930;8.660;2022-09-28T15:50:56;15.00;99.90
17341;DHT22;8788;49.930;8.660;2022-09-28T15:53:26;15.00;99.90
17341;DHT22;8788;49.930;8.660;2022-09-28T15:56:00;15.00;99.90
17341;DHT22;8788;49.930;8.660;2022-09-28T15:58:35;14.90;99.90
17341;DHT22;8788;49.930;8.660;2022-09-28T16:01:27;14.90;99.90
17341;DHT22;8788;49.930;8.660;2022-09-28T16:06:43;14.90;99.90
17341;DHT22;8788;49.930;8.660;2022-09-28T16:09:33;14.90;99.90
17341;DHT22;8788;49.930;8.660;2022-09-28T16:12:18;14.90;99.90
17341;DHT22;8788;49.930;8.660;2022-09-28T16:14:47;14.80;99.90
17341;DHT22;8788;49.930;8.660;2022-09-28T16:17:16;14.80;99.90
17341;DHT22;8788;49.930;8.660;2022-09-28T16:19:44;14.80;99.90
17341;DHT22;8788;49.930;8.660;2022-09-28T16:22:19;14.80;99.90
17341;DHT22;8788;49.930;8.660;2022-09-28T16:24:55;14.80;99.90
17341;DHT22;8788;49.930;8.660;2022-09-28T16:27:25;14.80;99.90
17341;DHT22;8788;49.930;8.660;2022-09-28T16:30:13;14.80;99.90
17341;DHT22;8788;49.930;8.660;2022-09-28T16:32:48;14.70;99.90
17341;DHT22;8788;49.930;8.660;2022-09-28T16:35:22;14.70;99.90
17341;DHT22;8788;49.930;8.660;2022-09-28T16:38:00;14.70;99.90
17341;DHT22;8788;49.930;8.660;2022-09-28T16:40:30;14.60;99.90
17341;DHT22;8788;49.930;8.660;2022-09-28T16:42:59;14.60;99.90
17341;DHT22;8788;49.930;8.660;2022-09-28T16:45:28;14.50;99.90
17341;DHT22;8788;49.930;8.660;2022-09-28T16:47:56;14.50;99.90
17341;DHT22;8788;49.930;8.660;2022-09-28T16:50:23;14.40;99.90
17341;DHT22;8788;49.930;8.660;2022-09-28T16:52:58;14.40;99.90
17341;DHT22;8788;49.930;8.660;2022-09-28T16:55:46;14.40;99.90
17341;DHT22;8788;49.930;8.660;2022-09-28T16:58:14;14.40;99.90
17341;DHT22;8788;49.930;8.660;2022-09-28T17:00:41;14.40;99.90
17341;DHT22;8788;49.930;8.660;2022-09-28T17:03:12;14.30;99.90
17341;DHT22;8788;49.930;8.660;2022-09-28T17:05:40;14.30;99.90
17341;DHT22;8788;49.930;8.660;2022-09-28T17:08:11;14.30;99.90
17341;DHT22;8788;49.930;8.660;2022-09-28T17:10:41;14.20;99.90
17341;DHT22;8788;49.930;8.660;2022-09-28T17:13:10;14.30;99.90
17341;DHT22;8788;49.930;8.660;2022-09-28T17:15:39;14.30;99.90
17341;DHT22;8788;49.930;8.660;2022-09-28T17:18:06;14.30;99.90
17341;DHT22;8788;49.930;8.660;2022-09-28T17:20:34;14.20;99.90
17341;DHT22;8788;49.930;8.660;2022-09-28T17:23:02;14.30;99.90
17341;DHT22;8788;49.930;8.660;2022-09-28T17:25:29;14.20;99.90
17341;DHT22;8788;49.930;8.660;2022-09-28T17:27:57;14.20;99.90
17341;DHT22;8788;49.930;8.660;2022-09-28T17:30:26;14.20;99.90
17341;DHT22;8788;49.930;8.660;2022-09-28T17:32:53;14.10;99.90
17341;DHT22;8788;49.930;8.660;2022-09-28T17:35:20;14.10;99.90
17341;DHT22;8788;49.930;8.660;2022-09-28T17:37:47;14.10;99.90
17341;DHT22;8788;49.930;8.660;2022-09-28T17:40:19;14.10;99.90
17341;DHT22;8788;49.930;8.660;2022-09-28T17:42:46;14.10;99.90
17341;DHT22;8788;49.930;8.660;2022-09-28T17:45:14;14.00;99.90
17341;DHT22;8788;49.930;8.660;2022-09-28T17:47:43;14.00;99.90
17341;DHT22;8788;49.930;8.660;2022-09-28T17:50:19;14.00;99.90
17341;DHT22;8788;49.930;8.660;2022-09-28T17:52:47;14.00;99.90
17341;DHT22;8788;49.930;8.660;2022-09-28T17:55:20;13.90;99.90
17341;DHT22;8788;49.930;8.660;2022-09-28T17:57:48;13.90;99.90
17341;DHT22;8788;49.930;8.660;2022-09-28T18:00:16;13.90;99.90
17341;DHT22;8788;49.930;8.660;2022-09-28T18:02:45;13.80;99.90
17341;DHT22;8788;49.930;8.660;2022-09-28T18:05:13;13.80;99.90
17341;DHT22;8788;49.930;8.660;2022-09-28T18:07:41;13.80;99.90
17341;DHT22;8788;49.930;8.660;2022-09-28T18:10:12;13.80;99.90
17341;DHT22;8788;49.930;8.660;2022-09-28T18:12:40;13.70;99.90
17341;DHT22;8788;49.930;8.660;2022-09-28T18:15:09;13.90;99.90
17341;DHT22;8788;49.930;8.660;2022-09-28T18:17:36;13.90;99.90
17341;DHT22;8788;49.930;8.660;2022-09-28T18:20:07;13.80;99.90
17341;DHT22;8788;49.930;8.660;2022-09-28T18:22:34;13.80;99.90
17341;DHT22;8788;49.930;8.660;2022-09-28T18:25:02;13.80;99.90
17341;DHT22;8788;49.930;8.660;2022-09-28T18:27:30;13.70;99.90
17341;DHT22;8788;49.930;8.660;2022-09-28T18:29:59;13.70;99.90
17341;DHT22;8788;49.930;8.660;2022-09-28T18:32:26;13.60;99.90
17341;DHT22;8788;49.930;8.660;2022-09-28T18:34:53;13.60;99.90
17341;DHT22;8788;49.930;8.660;2022-09-28T18:37:21;13.60;99.90
17341;DHT22;8788;49.930;8.660;2022-09-28T18:39:48;13.50;99.90
17341;DHT22;8788;49.930;8.660;2022-09-28T18:42:15;13.50;99.90
17341;DHT22;8788;49.930;8.660;2022-09-28T18:44:43;13.50;99.90
17341;DHT22;8788;49.930;8.660;2022-09-28T18:47:12;13.40;99.90
17341;DHT22;8788;49.930;8.660;2022-09-28T18:49:40;13.40;99.90
17341;DHT22;8788;49.930;8.660;2022-09-28T18:52:07;13.40;99.90
17341;DHT22;8788;49.930;8.660;2022-09-28T18:54:35;13.40;99.90
17341;DHT22;8788;49.930;8.660;2022-09-28T18:57:04;13.40;99.90
17341;DHT22;8788;49.930;8.660;2022-09-28T18:59:32;13.40;99.90
17341;DHT22;8788;49.930;8.660;2022-09-28T19:01:59;13.40;99.90
17341;DHT22;8788;49.930;8.660;2022-09-28T19:04:26;13.30;99.90
17341;DHT22;8788;49.930;8.660;2022-09-28T19:06:54;13.30;99.90
17341;DHT22;8788;49.930;8.660;2022-09-28T19:09:22;13.30;99.90
17341;DHT22;8788;49.930;8.660;2022-09-28T19:11:50;13.20;99.90
17341;DHT22;8788;49.930;8.660;2022-09-28T19:14:17;13.30;99.90
17341;DHT22;8788;49.930;8.660;2022-09-28T19:16:45;13.20;99.90
17341;DHT22;8788;49.930;8.660;2022-09-28T19:19:14;13.10;99.90
17341;DHT22;8788;49.930;8.660;2022-09-28T19:21:42;13.10;99.90
17341;DHT22;8788;49.930;8.660;2022-09-28T19:24:12;13.10;99.90
17341;DHT22;8788;49.930;8.660;2022-09-28T19:26:40;13.10;99.90
17341;DHT22;8788;49.930;8.660;2022-09-28T19:29:09;13.00;99.90
17341;DHT22;8788;49.930;8.660;2022-09-28T19:31:37;13.00;99.90
17341;DHT22;8788;49.930;8.660;2022-09-28T19:34:04;13.00;99.90
17341;DHT22;8788;49.930;8.660;2022-09-28T19:36:32;13.00;99.90
17341;DHT22;8788;49.930;8.660;2022-09-28T19:38:59;13.00;99.90
17341;DHT22;8788;49.930;8.660;2022-09-28T19:41:30;13.00;99.90
17341;DHT22;8788;49.930;8.660;2022-09-28T19:44:11;12.90;99.90
17341;DHT22;8788;49.930;8.660;2022-09-28T19:46:43;12.90;99.90
17341;DHT22;8788;49.930;8.660;2022-09-28T19:49:13;12.90;99.90
17341;DHT22;8788;49.930;8.660;2022-09-28T19:51:42;12.90;99.90
17341;DHT22;8788;49.930;8.660;2022-09-28T19:54:09;12.90;99.90
17341;DHT22;8788;49.930;8.660;2022-09-28T19:56:38;12.80;99.90
17341;DHT22;8788;49.930;8.660;2022-09-28T19:59:06;12.80;99.90
17341;DHT22;8788;49.930;8.660;2022-09-28T20:01:34;12.80;99.90
17341;DHT22;8788;49.930;8.660;2022-09-28T20:04:01;12.80;99.90
17341;DHT22;8788;49.930;8.660;2022-09-28T20:06:30;12.70;99.90
17341;DHT22;8788;49.930;8.660;2022-09-28T20:08:57;12.70;99.90
17341;DHT22;8788;49.930;8.660;2022-09-28T20:11:25;12.70;99.90
17341;DHT22;8788;49.930;8.660;2022-09-28T20:13:52;12.60;99.90
17341;DHT22;8788;49.930;8.660;2022-09-28T20:16:20;12.50;99.90
17341;DHT22;8788;49.930;8.660;2022-09-28T20:18:52;12.50;99.90
17341;DHT22;8788;49.930;8.660;2022-09-28T20:21:21;12.50;99.90
17341;DHT22;8788;49.930;8.660;2022-09-28T20:23:49;12.50;99.90
17341;DHT22;8788;49.930;8.660;2022-09-28T20:26:18;12.40;99.90
17341;DHT22;8788;49.930;8.660;2022-09-28T20:28:45;12.40;99.90
17341;DHT22;8788;49.930;8.660;2022-09-28T20:31:15;12.30;99.90
17341;DHT22;8788;49.930;8.660;2022-09-28T20:33:42;12.30;99.90
17341;DHT22;8788;49.930;8.660;2022-09-28T20:36:13;12.30;99.90
17341;DHT22;8788;49.930;8.660;2022-09-28T20:38:40;12.30;99.90
17341;DHT22;8788;49.930;8.660;2022-09-28T20:41:09;12.20;99.90
17341;DHT22;8788;49.930;8.660;2022-09-28T20:43:36;12.20;99.90
17341;DHT22;8788;49.930;8.660;2022-09-28T20:46:04;12.10;99.90
17341;DHT22;8788;49.930;8.660;2022-09-28T20:48:32;12.20;99.90
17341;DHT22;8788;49.930;8.660;2022-09-28T20:51:00;12.10;99.90
17341;DHT22;8788;49.930;8.660;2022-09-28T20:53:30;12.10;99.90
17341;DHT22;8788;49.930;8.660;2022-09-28T20:55:58;12.10;99.90